Time;durP1;ratioP1;P1;durP2;ratioP2;P2;SDS_P1;SDS_P2;PMS_P1;PMS_P2;Temp;Humidity;BMP_temperature;BMP_pressure;BME280_temperature;BME280_humidity;BME280_pressure;Samples;Min_cycle;Max_cycle;Signal;HPM_P1;HPM_P2
2021/08/03 00:01:53;;;;;;;0.73;0.73;;;17.90;99.90;;;;;;5051909;28;20195;-71
2021/08/03 00:04:21;;;;;;;1.50;0.73;;;17.80;99.90;;;;;;5050399;28;20263;-71
2021/08/03 00:06:58;;;;;;;0.80;0.80;;;17.80;99.90;;;;;;5051372;28;20199;-71
2021/08/03 00:09:26;;;;;;;3.40;2.07;;;17.80;99.90;;;;;;5049088;28;20198;-72
2021/08/03 00:11:55;;;;;;;2.60;2.40;;;17.80;99.90;;;;;;5051481;28;20246;-71
2021/08/03 00:14:22;;;;;;;2.80;1.60;;;17.80;99.90;;;;;;5051536;28;20202;-71
2021/08/03 00:16:50;;;;;;;1.50;1.40;;;17.80;99.90;;;;;;5051465;28;20222;-72
2021/08/03 00:19:17;;;;;;;1.10;1.00;;;17.80;99.90;;;;;;5037941;28;20686;-72
2021/08/03 00:21:43;;;;;;;1.00;0.90;;;17.80;99.90;;;;;;5050700;28;20297;-72
2021/08/03 00:24:12;;;;;;;1.80;1.50;;;17.70;99.90;;;;;;5049039;28;20999;-71
2021/08/03 00:26:39;;;;;;;2.70;1.10;;;17.80;99.90;;;;;;5051401;28;20197;-71
2021/08/03 00:29:06;;;;;;;1.27;1.00;;;17.80;99.90;;;;;;5060720;28;20201;-71
2021/08/03 00:31:33;;;;;;;0.70;0.70;;;17.80;99.90;;;;;;5051354;28;20229;-71
2021/08/03 00:34:01;;;;;;;1.20;0.80;;;17.70;99.90;;;;;;5049140;28;20210;-71
2021/08/03 00:36:30;;;;;;;0.50;0.50;;;17.70;99.90;;;;;;5051665;28;20186;-71
2021/08/03 00:39:01;;;;;;;0.63;0.63;;;17.70;99.90;;;;;;5046764;28;20234;-71
2021/08/03 00:41:39;;;;;;;1.07;0.70;;;17.70;99.90;;;;;;5050340;28;20185;-71
2021/08/03 00:44:06;;;;;;;0.60;0.60;;;17.60;99.90;;;;;;5065810;28;20283;-70
2021/08/03 00:46:33;;;;;;;0.73;0.70;;;17.60;99.90;;;;;;5050822;28;20256;-70
2021/08/03 00:49:04;;;;;;;0.70;0.70;;;17.60;99.90;;;;;;5049978;28;20225;-70
2021/08/03 00:51:32;;;;;;;0.63;0.60;;;17.60;99.90;;;;;;5048474;28;20313;-70
2021/08/03 00:53:59;;;;;;;0.67;0.67;;;17.60;99.90;;;;;;5050900;28;20677;-71
2021/08/03 00:56:28;;;;;;;0.73;0.73;;;17.60;99.90;;;;;;5054357;28;20207;-71
2021/08/03 00:58:57;;;;;;;1.40;1.00;;;17.50;99.90;;;;;;5049612;28;20194;-71
2021/08/03 01:01:24;;;;;;;0.90;0.80;;;17.60;99.90;;;;;;5050625;28;20223;-71
2021/08/03 01:03:51;;;;;;;0.83;0.70;;;17.60;99.90;;;;;;5049993;28;20197;-71
2021/08/03 01:06:27;;;;;;;1.00;0.70;;;17.60;99.90;;;;;;5049594;28;20249;-71
2021/08/03 01:09:01;;;;;;;0.87;0.87;;;17.60;99.90;;;;;;5046206;28;20225;-71
2021/08/03 01:11:40;;;;;;;1.27;0.80;;;17.60;99.90;;;;;;5048643;28;20221;-72
2021/08/03 01:14:15;;;;;;;0.70;0.70;;;17.60;99.90;;;;;;5048372;28;20669;-72
2021/08/03 01:16:49;;;;;;;0.80;0.80;;;17.70;99.90;;;;;;5048821;28;20262;-72
2021/08/03 01:19:22;;;;;;;1.47;0.87;;;17.60;99.90;;;;;;5048169;28;20218;-70
2021/08/03 01:22:05;;;;;;;1.33;0.90;;;17.70;99.90;;;;;;5047903;28;20669;-70
2021/08/03 01:24:55;;;;;;;1.20;0.73;;;17.70;99.90;;;;;;5046429;28;20704;-71
2021/08/03 01:27:38;;;;;;;1.23;1.00;;;17.70;99.90;;;;;;5048539;28;20260;-71
2021/08/03 01:30:07;;;;;;;2.97;1.07;;;17.70;99.90;;;;;;5056669;28;20199;-71
2021/08/03 01:32:41;;;;;;;1.13;0.77;;;17.70;99.90;;;;;;5049312;28;20712;-71
2021/08/03 01:35:10;;;;;;;0.70;0.70;;;17.70;99.90;;;;;;5053132;28;20216;-71
2021/08/03 01:37:38;;;;;;;2.00;0.90;;;17.70;99.90;;;;;;5046644;28;20657;-70
2021/08/03 01:40:14;;;;;;;0.93;0.90;;;17.70;99.90;;;;;;5047265;28;20208;-70
2021/08/03 01:42:45;;;;;;;0.77;0.77;;;17.70;99.90;;;;;;5036707;28;20617;-71
2021/08/03 01:45:18;;;;;;;1.00;0.90;;;17.70;99.90;;;;;;5048352;28;20573;-71
2021/08/03 01:47:46;;;;;;;0.70;0.70;;;17.70;99.90;;;;;;5047988;28;20289;-71
2021/08/03 01:50:16;;;;;;;0.87;0.87;;;17.60;99.90;;;;;;5047717;28;20235;-71
2021/08/03 01:52:49;;;;;;;0.80;0.80;;;17.60;99.90;;;;;;5045706;28;20222;-71
2021/08/03 01:55:26;;;;;;;0.70;0.70;;;17.60;99.90;;;;;;5046327;28;20296;-71
2021/08/03 01:57:57;;;;;;;1.20;0.73;;;17.60;99.90;;;;;;5044957;28;20664;-71
2021/08/03 02:00:33;;;;;;;1.10;1.00;;;17.50;99.90;;;;;;5045070;28;20301;-70
2021/08/03 02:03:06;;;;;;;2.50;0.83;;;17.50;99.90;;;;;;5040647;28;20187;-70
2021/08/03 02:05:37;;;;;;;1.50;0.90;;;17.50;99.90;;;;;;5047941;28;20260;-70
2021/08/03 02:08:10;;;;;;;2.10;1.17;;;17.50;99.90;;;;;;5045949;28;20216;-71
2021/08/03 02:10:40;;;;;;;0.90;0.77;;;17.50;99.90;;;;;;5046329;28;20682;-70
2021/08/03 02:13:08;;;;;;;0.77;0.67;;;17.40;99.90;;;;;;5047148;28;20230;-71
2021/08/03 02:15:38;;;;;;;0.70;0.70;;;17.40;99.90;;;;;;5049432;28;20190;-71
2021/08/03 02:18:06;;;;;;;1.00;0.90;;;17.30;99.90;;;;;;5047131;28;20202;-71
2021/08/03 02:20:42;;;;;;;1.73;0.80;;;17.40;99.90;;;;;;5047258;28;20311;-71
2021/08/03 02:23:09;;;;;;;1.33;0.93;;;17.40;99.90;;;;;;5047417;28;20476;-71
2021/08/03 02:25:42;;;;;;;1.10;0.97;;;17.40;99.90;;;;;;5047173;28;20207;-71
2021/08/03 02:28:10;;;;;;;0.80;0.80;;;17.40;99.90;;;;;;5049749;28;20203;-71
2021/08/03 02:30:42;;;;;;;0.70;0.70;;;17.40;99.90;;;;;;5072565;28;20562;-71
2021/08/03 02:33:16;;;;;;;0.90;0.80;;;17.40;99.90;;;;;;5046930;28;20581;-71
2021/08/03 02:35:49;;;;;;;0.80;0.80;;;17.40;99.90;;;;;;5047776;28;20426;-71
2021/08/03 02:38:20;;;;;;;0.77;0.77;;;17.40;99.90;;;;;;5047574;28;20251;-71
2021/08/03 02:40:49;;;;;;;0.90;0.60;;;17.40;99.90;;;;;;5045981;28;20209;-71
2021/08/03 02:43:23;;;;;;;0.83;0.73;;;17.40;99.90;;;;;;5047073;28;20199;-71
2021/08/03 02:45:57;;;;;;;1.27;0.90;;;17.40;99.90;;;;;;5047591;28;20608;-72
2021/08/03 02:48:25;;;;;;;1.00;1.00;;;17.40;99.90;;;;;;5048626;28;20299;-71
2021/08/03 02:50:52;;;;;;;1.07;0.97;;;17.40;99.90;;;;;;5048159;28;20259;-71
2021/08/03 02:53:25;;;;;;;1.75;0.90;;;17.40;99.90;;;;;;5046964;28;20236;-71
2021/08/03 02:55:57;;;;;;;0.70;0.70;;;17.40;99.90;;;;;;5046351;28;20240;-71
2021/08/03 02:58:30;;;;;;;0.90;0.90;;;17.40;99.90;;;;;;5051496;28;20670;-71
2021/08/03 03:01:00;;;;;;;0.77;0.77;;;17.40;99.90;;;;;;5046760;28;20240;-72
2021/08/03 03:03:30;;;;;;;1.13;0.80;;;17.40;99.90;;;;;;5046540;28;20206;-71
2021/08/03 03:06:00;;;;;;;1.10;0.70;;;17.40;99.90;;;;;;5049871;28;20300;-71
2021/08/03 03:08:30;;;;;;;0.77;0.77;;;17.40;99.90;;;;;;5046747;28;20270;-70
2021/08/03 03:11:02;;;;;;;0.63;0.63;;;17.40;99.90;;;;;;5036944;28;20214;-70
2021/08/03 03:13:36;;;;;;;1.60;1.10;;;17.50;99.90;;;;;;5049700;28;20218;-72
2021/08/03 03:16:07;;;;;;;1.57;1.10;;;17.50;99.90;;;;;;5052458;28;20829;-70
2021/08/03 03:18:35;;;;;;;0.80;0.80;;;17.60;99.90;;;;;;5050566;28;20657;-71
2021/08/03 03:21:04;;;;;;;0.93;0.83;;;17.60;99.90;;;;;;5050656;28;20242;-71
2021/08/03 03:23:33;;;;;;;1.30;0.90;;;17.60;99.90;;;;;;5048611;28;20773;-71
2021/08/03 03:26:02;;;;;;;0.97;0.80;;;17.60;99.90;;;;;;5049659;28;20203;-71
2021/08/03 03:28:33;;;;;;;0.80;0.60;;;17.60;99.90;;;;;;5045981;28;20190;-71
2021/08/03 03:31:02;;;;;;;0.90;0.90;;;17.70;99.90;;;;;;5046022;28;20542;-71
2021/08/03 03:33:35;;;;;;;0.80;0.80;;;17.70;99.90;;;;;;5050064;28;20775;-71
2021/08/03 03:36:04;;;;;;;1.47;0.90;;;17.70;99.90;;;;;;5050901;28;20349;-71
2021/08/03 03:38:33;;;;;;;1.70;1.03;;;17.80;99.90;;;;;;5049263;28;20211;-70
2021/08/03 03:41:01;;;;;;;0.90;0.87;;;17.80;99.90;;;;;;5049357;28;20209;-71
2021/08/03 03:43:30;;;;;;;0.82;0.82;;;17.80;99.90;;;;;;5050118;28;20705;-71
2021/08/03 03:46:06;;;;;;;0.83;0.70;;;17.90;99.90;;;;;;5050464;28;20551;-71
2021/08/03 03:48:44;;;;;;;0.90;0.80;;;17.90;99.90;;;;;;5050160;28;20207;-71
2021/08/03 03:51:16;;;;;;;0.70;0.70;;;17.90;99.90;;;;;;5050370;28;20295;-71
2021/08/03 03:53:48;;;;;;;0.73;0.73;;;18.00;99.90;;;;;;5048468;28;20227;-70
2021/08/03 03:56:17;;;;;;;1.98;0.90;;;18.10;99.90;;;;;;5038738;28;20615;-70
2021/08/03 03:58:51;;;;;;;0.90;0.90;;;18.10;99.90;;;;;;5037869;28;20200;-70
2021/08/03 04:01:23;;;;;;;0.88;0.88;;;18.20;99.90;;;;;;5066401;28;20203;-71
2021/08/03 04:03:54;;;;;;;1.50;0.55;;;18.20;99.90;;;;;;5051054;28;20287;-71
2021/08/03 04:06:21;;;;;;;1.70;0.88;;;18.20;99.90;;;;;;5052041;28;20224;-70
2021/08/03 04:08:49;;;;;;;1.95;0.65;;;18.30;99.90;;;;;;5047434;28;20208;-70
2021/08/03 04:11:16;;;;;;;0.93;0.93;;;18.30;99.90;;;;;;5049355;28;20684;-70
2021/08/03 04:13:50;;;;;;;0.80;0.80;;;18.40;99.90;;;;;;5049381;28;20233;-71
2021/08/03 04:16:19;;;;;;;1.08;0.80;;;18.40;99.90;;;;;;5049791;28;20304;-71
2021/08/03 04:18:46;;;;;;;0.80;0.80;;;18.50;99.90;;;;;;5051025;28;20558;-70
2021/08/03 04:21:14;;;;;;;7.40;1.10;;;18.50;99.90;;;;;;5050722;28;20241;-71
2021/08/03 04:23:41;;;;;;;1.85;0.70;;;18.60;99.90;;;;;;5049055;28;20211;-71
2021/08/03 04:26:08;;;;;;;0.73;0.73;;;18.80;99.90;;;;;;5049284;28;20664;-71
2021/08/03 04:28:35;;;;;;;0.95;0.93;;;18.90;99.90;;;;;;5051190;28;20196;-70
2021/08/03 04:31:02;;;;;;;1.75;0.77;;;19.00;99.90;;;;;;5050859;28;20207;-71
2021/08/03 04:33:29;;;;;;;0.77;0.77;;;19.00;99.90;;;;;;5050299;28;20267;-71
2021/08/03 04:35:56;;;;;;;1.25;1.00;;;19.10;99.90;;;;;;5049829;28;20205;-70
2021/08/03 04:38:25;;;;;;;1.20;1.10;;;19.20;99.90;;;;;;5049634;28;20198;-72
2021/08/03 04:40:52;;;;;;;0.80;0.80;;;19.30;99.90;;;;;;5050207;28;20227;-71
2021/08/03 04:43:19;;;;;;;1.90;1.08;;;19.30;99.90;;;;;;5050319;28;20609;-70
2021/08/03 04:45:46;;;;;;;1.05;0.90;;;19.30;99.90;;;;;;5051107;28;20296;-71
2021/08/03 04:48:14;;;;;;;0.73;0.73;;;19.40;99.90;;;;;;5050533;28;20729;-71
2021/08/03 04:50:41;;;;;;;1.23;1.00;;;19.40;99.90;;;;;;5050570;28;20230;-72
2021/08/03 04:53:08;;;;;;;0.77;0.77;;;19.40;99.90;;;;;;5048676;28;20309;-71
2021/08/03 04:55:36;;;;;;;0.70;0.70;;;19.50;99.90;;;;;;5050102;28;20666;-70
2021/08/03 04:58:03;;;;;;;1.38;1.02;;;19.50;99.90;;;;;;5048643;28;20198;-71
2021/08/03 05:00:30;;;;;;;0.70;0.70;;;19.60;99.90;;;;;;5050468;28;20200;-72
2021/08/03 05:02:57;;;;;;;1.05;0.70;;;19.70;99.90;;;;;;5049624;28;20205;-72
2021/08/03 05:05:25;;;;;;;1.48;0.95;;;19.70;99.90;;;;;;5050420;28;20196;-71
2021/08/03 05:07:57;;;;;;;1.63;0.80;;;19.70;99.90;;;;;;5048782;28;20194;-72
2021/08/03 05:10:24;;;;;;;0.88;0.88;;;19.80;99.90;;;;;;5049481;28;20202;-72
2021/08/03 05:12:52;;;;;;;1.08;1.00;;;19.90;99.90;;;;;;5049783;28;20217;-72
2021/08/03 05:15:19;;;;;;;1.20;0.98;;;19.90;99.90;;;;;;5046919;28;20213;-71
2021/08/03 05:17:47;;;;;;;0.70;0.57;;;20.00;99.90;;;;;;5048385;28;20237;-71
2021/08/03 05:20:14;;;;;;;1.15;0.85;;;20.10;99.90;;;;;;5048743;28;20346;-71
2021/08/03 05:22:41;;;;;;;0.90;0.80;;;20.20;99.90;;;;;;5048014;28;20259;-72
2021/08/03 05:25:10;;;;;;;0.80;0.80;;;20.20;99.90;;;;;;5049153;28;20197;-70
2021/08/03 05:27:38;;;;;;;1.05;0.80;;;20.30;99.90;;;;;;5064850;28;20201;-71
2021/08/03 05:30:08;;;;;;;0.80;0.77;;;20.40;99.90;;;;;;5051419;28;20677;-72
2021/08/03 05:32:35;;;;;;;0.73;0.73;;;20.40;99.90;;;;;;5047806;28;20202;-72
2021/08/03 05:35:02;;;;;;;1.88;0.90;;;20.40;99.90;;;;;;5049935;28;20350;-71
2021/08/03 05:37:29;;;;;;;1.30;1.10;;;20.50;99.90;;;;;;5048613;28;20198;-70
2021/08/03 05:39:56;;;;;;;2.40;1.00;;;20.50;99.90;;;;;;5049306;28;20205;-72
2021/08/03 05:42:23;;;;;;;0.60;0.60;;;20.50;99.90;;;;;;5048064;28;20198;-71
2021/08/03 05:44:50;;;;;;;1.80;0.98;;;20.70;99.90;;;;;;5049596;28;20208;-71
2021/08/03 05:47:18;;;;;;;0.82;0.80;;;20.70;99.90;;;;;;5049849;28;20204;-71
2021/08/03 05:49:45;;;;;;;0.82;0.82;;;20.60;99.90;;;;;;5049603;28;20198;-72
2021/08/03 05:52:13;;;;;;;3.42;1.02;;;20.70;99.90;;;;;;5048925;28;20226;-70
2021/08/03 05:54:40;;;;;;;2.22;1.10;;;20.70;99.90;;;;;;5047144;28;20213;-72
2021/08/03 05:57:07;;;;;;;2.35;0.85;;;20.80;99.90;;;;;;5049323;28;20202;-71
2021/08/03 05:59:34;;;;;;;0.93;0.90;;;20.80;99.90;;;;;;5034543;28;20200;-72
2021/08/03 06:02:01;;;;;;;1.23;1.15;;;20.70;99.90;;;;;;5048946;28;20225;-71
2021/08/03 06:04:29;;;;;;;2.55;1.95;;;20.70;99.90;;;;;;5047762;28;20201;-71
2021/08/03 06:06:56;;;;;;;4.22;1.58;;;20.70;99.90;;;;;;5047565;28;20252;-71
2021/08/03 06:09:28;;;;;;;1.75;1.20;;;20.70;99.90;;;;;;5047355;28;20209;-71
2021/08/03 06:11:56;;;;;;;1.58;1.38;;;20.70;99.90;;;;;;5047444;28;20218;-71
2021/08/03 06:14:34;;;;;;;2.20;1.15;;;20.70;99.90;;;;;;5049105;28;20519;-73
2021/08/03 06:17:05;;;;;;;0.85;0.85;;;20.70;99.90;;;;;;5049060;28;20280;-73
2021/08/03 06:19:42;;;;;;;0.90;0.90;;;20.80;99.90;;;;;;5049471;28;20205;-72
2021/08/03 06:22:10;;;;;;;1.05;0.93;;;20.80;99.90;;;;;;5046540;28;20316;-71
2021/08/03 06:24:38;;;;;;;0.95;0.95;;;20.80;99.90;;;;;;5046793;28;20259;-71
2021/08/03 06:27:08;;;;;;;1.17;1.10;;;20.90;99.90;;;;;;5048574;28;20193;-71
2021/08/03 06:29:37;;;;;;;3.38;1.10;;;21.00;99.90;;;;;;5047556;28;20209;-71
2021/08/03 06:32:06;;;;;;;1.15;1.10;;;21.10;99.90;;;;;;5048412;28;20608;-72
2021/08/03 06:34:37;;;;;;;0.93;0.93;;;21.10;99.90;;;;;;5048211;28;20217;-71
2021/08/03 06:37:05;;;;;;;0.80;0.80;;;21.10;99.90;;;;;;5044259;28;20213;-79
2021/08/03 06:39:32;;;;;;;1.48;1.00;;;21.20;99.90;;;;;;5041368;28;20240;-78
2021/08/03 06:42:04;;;;;;;0.90;0.90;;;21.20;99.90;;;;;;5041756;28;20212;-78
2021/08/03 06:44:40;;;;;;;0.80;0.80;;;21.20;99.90;;;;;;5058916;28;20670;-78
2021/08/03 06:47:08;;;;;;;1.20;1.10;;;21.20;99.90;;;;;;5041619;28;21084;-79
2021/08/03 06:49:42;;;;;;;1.15;1.05;;;21.20;99.90;;;;;;5038522;28;20194;-77
2021/08/03 06:52:13;;;;;;;2.67;1.15;;;21.20;99.90;;;;;;5048989;28;20527;-78
2021/08/03 06:54:46;;;;;;;0.80;0.80;;;21.10;99.90;;;;;;5040924;28;20809;-78
2021/08/03 06:57:16;;;;;;;1.42;0.82;;;21.10;99.90;;;;;;5045535;28;20198;-78
2021/08/03 06:59:46;;;;;;;1.48;1.33;;;21.10;99.90;;;;;;5043726;28;20190;-76
2021/08/03 07:02:21;;;;;;;1.30;1.20;;;21.10;99.90;;;;;;5058574;28;20209;-78
2021/08/03 07:04:57;;;;;;;3.28;1.00;;;21.20;99.90;;;;;;5041312;28;20399;-78
2021/08/03 07:07:25;;;;;;;1.30;1.20;;;21.20;99.90;;;;;;5030615;28;20224;-77
2021/08/03 07:09:54;;;;;;;2.13;1.02;;;21.30;99.90;;;;;;5042864;28;20604;-78
2021/08/03 07:12:22;;;;;;;1.85;1.58;;;21.30;99.90;;;;;;5043930;28;20284;-79
2021/08/03 07:14:50;;;;;;;1.30;1.20;;;21.30;99.90;;;;;;5043829;28;20227;-79
2021/08/03 07:17:17;;;;;;;1.15;1.02;;;21.40;99.90;;;;;;5041826;28;20248;-80
2021/08/03 07:19:45;;;;;;;0.70;0.70;;;21.40;99.90;;;;;;5041917;28;20594;-78
2021/08/03 07:22:17;;;;;;;0.93;0.85;;;21.30;99.90;;;;;;5036278;28;20202;-78
2021/08/03 07:24:46;;;;;;;1.10;1.10;;;21.50;99.90;;;;;;5035216;28;20205;-79
2021/08/03 07:27:14;;;;;;;1.63;1.52;;;21.50;99.90;;;;;;5042749;28;20224;-78
2021/08/03 07:29:41;;;;;;;1.60;1.50;;;21.60;99.90;;;;;;5046391;28;20216;-78
2021/08/03 07:32:09;;;;;;;1.27;1.17;;;21.70;99.90;;;;;;5043899;28;20682;-79
2021/08/03 07:34:37;;;;;;;0.73;0.73;;;21.70;99.90;;;;;;5036320;28;20263;-79
2021/08/03 07:37:05;;;;;;;1.13;1.02;;;21.70;99.90;;;;;;5042727;28;20683;-78
2021/08/03 07:39:34;;;;;;;0.82;0.82;;;21.70;99.80;;;;;;5041282;28;20205;-76
2021/08/03 07:42:01;;;;;;;1.20;0.98;;;21.70;99.60;;;;;;5043431;28;20190;-76
2021/08/03 07:44:28;;;;;;;1.00;1.00;;;21.80;99.90;;;;;;5038938;28;20543;-76
2021/08/03 07:46:55;;;;;;;1.08;0.80;;;21.90;99.40;;;;;;5042280;28;20585;-75
2021/08/03 07:49:22;;;;;;;0.90;0.90;;;22.00;99.20;;;;;;5041544;28;20197;-76
2021/08/03 07:51:52;;;;;;;0.90;0.90;;;22.00;98.90;;;;;;5044738;28;20252;-76
2021/08/03 07:54:19;;;;;;;1.20;1.10;;;22.20;98.70;;;;;;5043163;28;20226;-75
2021/08/03 07:56:48;;;;;;;1.08;0.90;;;22.30;98.40;;;;;;5045408;28;20229;-75
2021/08/03 07:59:14;;;;;;;1.20;0.88;;;22.50;98.00;;;;;;5043923;28;20222;-76
2021/08/03 08:01:41;;;;;;;0.75;0.75;;;22.60;97.70;;;;;;5043491;28;20699;-72
2021/08/03 08:04:08;;;;;;;1.55;0.88;;;22.70;97.40;;;;;;5043402;28;20812;-73
2021/08/03 08:06:35;;;;;;;0.80;0.75;;;22.80;97.20;;;;;;5046772;28;20862;-72
2021/08/03 08:09:02;;;;;;;0.80;0.80;;;22.80;96.90;;;;;;5042883;28;20206;-70
2021/08/03 08:11:29;;;;;;;1.13;1.08;;;22.90;96.60;;;;;;5041144;28;20207;-71
2021/08/03 08:13:57;;;;;;;1.50;0.90;;;23.00;96.30;;;;;;5046414;28;20236;-72
2021/08/03 08:16:24;;;;;;;0.77;0.77;;;23.10;95.80;;;;;;5047032;28;20196;-72
2021/08/03 08:18:51;;;;;;;1.00;1.00;;;23.20;95.50;;;;;;5047908;28;20205;-72
2021/08/03 08:21:18;;;;;;;1.20;1.10;;;23.20;95.00;;;;;;5047458;28;20277;-71
2021/08/03 08:23:45;;;;;;;1.00;1.00;;;23.20;94.60;;;;;;5044925;28;20205;-72
2021/08/03 08:26:12;;;;;;;2.60;0.82;;;23.20;94.50;;;;;;5044693;28;20279;-72
2021/08/03 08:28:39;;;;;;;0.85;0.85;;;23.20;94.20;;;;;;5047694;28;20193;-71
2021/08/03 08:31:07;;;;;;;0.93;0.93;;;23.20;93.90;;;;;;5041188;28;20212;-72
2021/08/03 08:33:34;;;;;;;0.80;0.80;;;23.20;93.80;;;;;;5045401;28;20700;-71
2021/08/03 08:36:01;;;;;;;1.10;0.88;;;23.20;93.70;;;;;;5043730;28;20198;-71
2021/08/03 08:38:28;;;;;;;0.90;0.90;;;23.20;93.50;;;;;;5042987;28;20190;-71
2021/08/03 08:40:55;;;;;;;1.23;1.13;;;23.20;93.30;;;;;;5045854;28;20198;-71
2021/08/03 08:43:22;;;;;;;0.95;0.95;;;23.30;93.00;;;;;;5044951;28;20256;-71
2021/08/03 08:45:49;;;;;;;0.70;0.70;;;23.40;92.80;;;;;;5046071;28;20194;-71
2021/08/03 08:48:20;;;;;;;0.88;0.88;;;23.50;92.40;;;;;;5059299;28;20198;-72
2021/08/03 08:50:47;;;;;;;0.90;0.90;;;23.70;92.10;;;;;;5062585;28;20202;-71
2021/08/03 08:53:15;;;;;;;1.38;1.08;;;24.00;91.90;;;;;;5043223;28;20202;-73
2021/08/03 08:55:42;;;;;;;0.80;0.80;;;24.30;91.40;;;;;;5045094;28;20245;-71
2021/08/03 08:58:09;;;;;;;1.00;1.00;;;24.70;91.00;;;;;;5045446;28;20277;-73
2021/08/03 09:00:36;;;;;;;0.70;0.70;;;25.00;90.20;;;;;;5044318;28;20562;-71
2021/08/03 09:03:03;;;;;;;1.08;0.98;;;25.40;89.20;;;;;;5044371;28;20227;-73
2021/08/03 09:05:33;;;;;;;1.00;1.00;;;25.70;87.30;;;;;;5058610;28;20197;-72
2021/08/03 09:08:02;;;;;;;1.05;1.05;;;26.00;85.90;;;;;;5042867;28;20217;-72
2021/08/03 09:10:32;;;;;;;1.00;1.00;;;26.30;84.20;;;;;;5045054;28;20247;-72
2021/08/03 09:13:01;;;;;;;0.80;0.80;;;26.60;81.90;;;;;;5044115;28;20232;-72
2021/08/03 09:15:28;;;;;;;0.80;0.80;;;26.70;80.60;;;;;;5041982;28;20690;-72
2021/08/03 09:18:16;;;;;;;1.00;0.90;;;26.90;79.60;;;;;;5043295;28;20213;-72
2021/08/03 09:20:46;;;;;;;1.00;1.00;;;27.10;77.50;;;;;;5041602;28;20275;-66
2021/08/03 09:23:14;;;;;;;0.95;0.95;;;27.30;74.90;;;;;;5042322;28;20193;-66
2021/08/03 09:25:52;;;;;;;0.80;0.80;;;27.40;74.30;;;;;;5043285;28;20192;-67
2021/08/03 09:28:20;;;;;;;2.38;1.15;;;27.50;73.60;;;;;;5045143;28;20554;-67
2021/08/03 09:30:47;;;;;;;1.98;0.95;;;27.40;73.00;;;;;;5046236;28;20954;-66
2021/08/03 09:33:23;;;;;;;1.92;0.70;;;27.40;73.10;;;;;;5044278;28;20210;-67
2021/08/03 09:35:51;;;;;;;1.65;1.00;;;27.30;72.90;;;;;;5042242;28;20994;-66
2021/08/03 09:38:21;;;;;;;0.90;0.90;;;27.20;72.60;;;;;;5042319;28;20223;-75
2021/08/03 09:40:52;;;;;;;1.23;1.15;;;27.10;72.50;;;;;;5044401;28;20259;-75
2021/08/03 09:43:27;;;;;;;1.40;1.30;;;27.10;72.30;;;;;;5045346;28;20571;-75
2021/08/03 09:46:00;;;;;;;1.10;1.10;;;27.10;71.60;;;;;;5033898;28;20202;-75
2021/08/03 09:48:29;;;;;;;0.80;0.80;;;27.10;71.00;;;;;;5044487;28;20267;-74
2021/08/03 09:51:06;;;;;;;0.95;0.95;;;27.10;70.70;;;;;;5043146;28;20229;-74
2021/08/03 09:53:41;;;;;;;1.85;1.20;;;26.90;70.50;;;;;;5054632;28;20546;-76
2021/08/03 09:56:11;;;;;;;1.00;1.00;;;26.80;70.80;;;;;;5042093;28;20229;-74
2021/08/03 09:58:54;;;;;;;0.80;0.80;;;26.70;70.80;;;;;;5042158;28;20205;-76
2021/08/03 10:01:25;;;;;;;0.95;0.90;;;26.50;70.90;;;;;;5044022;28;20303;-74
2021/08/03 10:03:53;;;;;;;0.80;0.80;;;26.50;71.10;;;;;;5044452;28;20610;-74
2021/08/03 10:06:22;;;;;;;1.00;1.00;;;26.50;70.80;;;;;;5043119;28;20210;-74
2021/08/03 10:08:50;;;;;;;0.93;0.70;;;26.40;70.50;;;;;;5041206;28;20205;-75
2021/08/03 10:11:18;;;;;;;1.30;0.93;;;26.40;70.40;;;;;;5043600;28;20221;-75
2021/08/03 10:13:46;;;;;;;0.90;0.90;;;26.40;70.30;;;;;;5043379;28;20205;-74
2021/08/03 10:16:14;;;;;;;1.10;0.77;;;26.40;70.10;;;;;;5056419;28;20202;-75
2021/08/03 10:18:42;;;;;;;2.72;1.15;;;26.40;69.60;;;;;;5045358;28;20190;-74
2021/08/03 10:21:16;;;;;;;1.42;0.93;;;26.50;69.40;;;;;;5044357;28;20291;-71
2021/08/03 10:23:46;;;;;;;1.48;0.90;;;26.40;69.30;;;;;;5041290;28;20236;-66
2021/08/03 10:26:15;;;;;;;0.90;0.90;;;26.20;69.10;;;;;;5044384;28;20198;-66
2021/08/03 10:28:42;;;;;;;0.90;0.90;;;26.10;69.60;;;;;;5046732;28;20189;-67
2021/08/03 10:31:38;;;;;;;0.70;0.70;;;25.90;70.20;;;;;;5044124;28;20201;-66
2021/08/03 10:34:05;;;;;;;2.38;1.08;;;25.70;70.60;;;;;;5039363;28;20289;-66
2021/08/03 10:36:47;;;;;;;0.75;0.75;;;25.50;71.20;;;;;;5043681;28;20676;-66
2021/08/03 10:39:17;;;;;;;2.70;1.02;;;25.30;72.00;;;;;;5041170;28;20212;-66
2021/08/03 10:42:08;;;;;;;0.75;0.75;;;25.20;73.00;;;;;;5041583;28;20198;-67
2021/08/03 10:44:44;;;;;;;0.90;0.90;;;25.10;74.20;;;;;;5045429;28;20296;-66
2021/08/03 10:47:44;;;;;;;0.98;0.98;;;25.10;75.30;;;;;;5043290;28;20228;-66
2021/08/03 10:50:13;;;;;;;1.05;0.93;;;25.10;76.30;;;;;;5036292;28;20578;-66
2021/08/03 10:52:52;;;;;;;0.80;0.80;;;25.20;76.90;;;;;;5034837;28;20753;-66
2021/08/03 10:55:41;;;;;;;1.10;0.95;;;25.10;77.40;;;;;;5032202;28;20234;-66
2021/08/03 10:58:29;;;;;;;0.80;0.80;;;25.20;77.90;;;;;;5035196;28;20189;-66
2021/08/03 11:00:58;;;;;;;1.60;0.80;;;25.30;78.20;;;;;;5037527;28;20201;-67
2021/08/03 11:03:44;;;;;;;0.80;0.80;;;26.10;78.00;;;;;;5041980;28;20194;-66
2021/08/03 11:06:36;;;;;;;0.73;0.73;;;27.30;75.60;;;;;;5041736;28;20189;-67
2021/08/03 11:09:31;;;;;;;1.05;0.80;;;28.10;73.80;;;;;;5039944;28;20198;-66
2021/08/03 11:12:34;;;;;;;1.52;1.20;;;29.20;72.10;;;;;;5041590;28;20214;-67
2021/08/03 11:15:41;;;;;;;0.90;0.90;;;30.50;67.50;;;;;;5038252;28;20323;-67
2021/08/03 11:18:14;;;;;;;0.80;0.80;;;30.60;66.00;;;;;;5037608;28;20197;-66
2021/08/03 11:21:03;;;;;;;1.52;0.80;;;30.20;65.50;;;;;;5044966;28;20233;-65
2021/08/03 11:24:07;;;;;;;0.90;0.90;;;29.70;66.20;;;;;;5042445;28;20213;-65
2021/08/03 11:26:36;;;;;;;1.23;1.13;;;29.20;65.90;;;;;;5043639;28;20450;-67
2021/08/03 11:29:08;;;;;;;1.27;0.98;;;28.80;65.60;;;;;;5048948;28;20289;-66
2021/08/03 11:31:56;;;;;;;1.20;1.15;;;28.40;65.90;;;;;;5061844;28;20240;-67
2021/08/03 11:34:26;;;;;;;1.25;1.15;;;28.10;66.20;;;;;;5047015;28;20194;-67
2021/08/03 11:37:17;;;;;;;1.00;0.98;;;27.90;66.00;;;;;;5045850;28;20201;-68
2021/08/03 11:39:48;;;;;;;0.80;0.80;;;27.80;66.00;;;;;;5044673;28;20213;-68
2021/08/03 11:42:19;;;;;;;1.20;1.00;;;28.00;65.80;;;;;;5047409;28;20202;-67
2021/08/03 11:45:01;;;;;;;0.98;0.98;;;28.40;65.10;;;;;;5047613;28;20293;-68
2021/08/03 11:47:45;;;;;;;1.30;1.20;;;28.60;64.30;;;;;;5041717;28;20280;-68
2021/08/03 11:50:14;;;;;;;2.10;1.30;;;28.40;63.30;;;;;;5038188;28;20236;-68
2021/08/03 11:52:41;;;;;;;1.15;1.05;;;28.00;63.20;;;;;;5043618;28;20202;-67
2021/08/03 11:55:12;;;;;;;2.03;0.90;;;27.70;63.40;;;;;;5047113;28;20783;-67
2021/08/03 11:57:41;;;;;;;0.85;0.85;;;27.40;63.70;;;;;;5046131;28;20208;-67
2021/08/03 12:00:29;;;;;;;1.17;1.02;;;27.20;64.60;;;;;;5044826;28;20213;-67
2021/08/03 12:02:57;;;;;;;0.70;0.70;;;26.90;65.30;;;;;;5056873;28;20205;-68
2021/08/03 12:05:30;;;;;;;1.20;1.10;;;26.70;65.90;;;;;;5046405;28;20654;-67
2021/08/03 12:08:04;;;;;;;2.88;1.10;;;26.50;65.90;;;;;;5043927;28;20379;-67
2021/08/03 12:10:34;;;;;;;1.67;1.15;;;26.30;65.90;;;;;;5046752;28;20196;-68
2021/08/03 12:13:02;;;;;;;0.90;0.90;;;26.00;66.40;;;;;;5045783;28;20201;-67
2021/08/03 12:15:30;;;;;;;1.35;0.98;;;25.80;67.30;;;;;;5046309;28;20217;-68
2021/08/03 12:18:09;;;;;;;1.05;1.05;;;25.60;68.30;;;;;;5053947;28;20213;-67
2021/08/03 12:20:40;;;;;;;1.67;1.20;;;25.30;69.70;;;;;;5042601;28;20397;-66
2021/08/03 12:23:13;;;;;;;1.40;1.25;;;25.10;70.90;;;;;;5044044;28;20212;-67
2021/08/03 12:25:49;;;;;;;1.23;1.15;;;24.90;72.00;;;;;;5047710;28;20197;-67
2021/08/03 12:28:37;;;;;;;1.33;1.30;;;24.60;72.80;;;;;;5041904;28;20381;-66
2021/08/03 12:31:28;;;;;;;1.00;1.00;;;24.40;73.70;;;;;;5047169;28;20466;-66
2021/08/03 12:34:08;;;;;;;0.95;0.95;;;24.40;74.40;;;;;;5047002;28;20252;-65
2021/08/03 12:36:42;;;;;;;1.02;1.02;;;24.30;75.00;;;;;;5047092;28;20221;-66
2021/08/03 12:39:17;;;;;;;0.73;0.73;;;24.30;75.60;;;;;;5041854;28;20213;-66
2021/08/03 12:41:44;;;;;;;0.70;0.70;;;24.30;75.90;;;;;;5048179;28;20570;-67
2021/08/03 12:44:27;;;;;;;0.70;0.70;;;24.30;76.40;;;;;;5041151;28;20186;-67
2021/08/03 12:46:55;;;;;;;0.80;0.80;;;24.20;76.80;;;;;;5045677;28;20200;-67
2021/08/03 12:49:32;;;;;;;0.70;0.70;;;24.10;77.40;;;;;;5045434;28;20212;-67
2021/08/03 12:52:11;;;;;;;0.63;0.63;;;24.00;78.10;;;;;;5038357;28;20216;-68
2021/08/03 12:54:39;;;;;;;0.80;0.80;;;24.00;78.60;;;;;;5043251;28;20198;-66
2021/08/03 12:57:05;;;;;;;0.70;0.70;;;23.80;78.90;;;;;;5040883;28;20224;-66
2021/08/03 12:59:34;;;;;;;0.60;0.60;;;23.80;79.50;;;;;;5045407;28;20208;-66
2021/08/03 13:02:03;;;;;;;0.70;0.70;;;23.70;79.90;;;;;;5043212;28;20662;-66
2021/08/03 13:04:30;;;;;;;0.75;0.75;;;23.60;80.00;;;;;;5042529;28;20206;-66
2021/08/03 13:07:00;;;;;;;0.70;0.70;;;23.60;81.10;;;;;;5043627;28;20247;-66
2021/08/03 13:09:28;;;;;;;0.38;0.38;;;23.50;80.40;;;;;;5041392;28;20543;-72